createdAt,value
2019-06-27T00:00:26.118Z,82.26
2019-06-27T00:01:05.088Z,82.26
2019-06-27T00:02:05.067Z,82.46
2019-06-27T00:03:05.035Z,82.46
2019-06-27T00:04:05.017Z,82.65
2019-06-27T00:05:04.992Z,82.36
2019-06-27T00:06:25.951Z,82.65
2019-06-27T00:07:04.937Z,82.75
2019-06-27T00:08:04.916Z,83.04
2019-06-27T00:09:04.881Z,82.84
2019-06-27T00:10:04.851Z,83.39
2019-06-27T00:11:04.826Z,83.09
2019-06-27T00:12:25.798Z,83.09
2019-06-27T00:13:04.773Z,83.29
2019-06-27T00:14:04.761Z,83.19
2019-06-27T00:15:04.727Z,83.29
2019-06-27T00:16:04.694Z,83.19
2019-06-27T00:17:04.663Z,83.29
2019-06-27T00:18:25.636Z,83.09
2019-06-27T00:19:04.618Z,83.19
2019-06-27T00:20:04.592Z,83.48
2019-06-27T00:21:04.567Z,82.90
2019-06-27T00:22:04.532Z,83.39
2019-06-27T00:23:04.510Z,83.39
2019-06-27T00:24:25.488Z,83.19
2019-06-27T00:25:04.458Z,83.09
2019-06-27T00:26:04.431Z,83.44
2019-06-27T00:27:04.395Z,83.44
2019-06-27T00:28:04.373Z,83.15
2019-06-27T00:29:04.348Z,84.21
2019-06-27T00:30:25.315Z,83.69
2019-06-27T00:31:04.293Z,83.78
2019-06-27T00:32:04.268Z,83.59
2019-06-27T00:33:04.236Z,84.01
2019-06-27T00:34:04.218Z,84.21
2019-06-27T00:35:04.192Z,83.98
2019-06-27T00:36:25.166Z,83.88
2019-06-27T00:37:04.136Z,83.69
2019-06-27T00:38:04.119Z,83.78
2019-06-27T00:39:04.076Z,83.88
2019-06-27T00:40:04.047Z,83.59
2019-06-27T00:41:04.025Z,83.64
2019-06-27T00:42:24.994Z,83.74
2019-06-27T00:43:03.973Z,84.03
2019-06-27T00:44:03.938Z,83.74
2019-06-27T00:45:03.919Z,83.74
2019-06-27T00:46:03.904Z,84.22
2019-06-27T00:47:03.859Z,83.94
2019-06-27T00:48:24.835Z,83.74
2019-06-27T00:49:03.803Z,83.94
2019-06-27T00:50:03.786Z,83.74
2019-06-27T00:51:03.762Z,83.74
2019-06-27T00:52:03.714Z,83.74
2019-06-27T00:53:03.706Z,83.55
2019-06-27T00:54:24.672Z,83.94
2019-06-27T00:55:03.651Z,83.74
2019-06-27T00:56:03.643Z,83.70
2019-06-27T00:57:13.452Z,83.80
2019-06-27T00:58:03.569Z,83.89
2019-06-27T00:59:03.536Z,83.61
2019-06-27T01:00:24.504Z,83.89
2019-06-27T01:01:03.486Z,83.70
2019-06-27T01:02:03.450Z,83.70
2019-06-27T01:03:03.426Z,83.70
2019-06-27T01:04:03.408Z,83.89
2019-06-27T01:05:03.369Z,83.70
2019-06-27T01:06:24.339Z,83.80
2019-06-27T01:07:03.315Z,83.95
2019-06-27T01:08:03.293Z,83.66
2019-06-27T01:09:03.251Z,83.61
2019-06-27T01:10:03.226Z,83.70
2019-06-27T01:11:03.200Z,83.70
2019-06-27T01:12:24.187Z,83.08
2019-06-27T01:13:03.143Z,83.08
2019-06-27T01:14:03.123Z,83.47
2019-06-27T01:15:03.099Z,83.66
2019-06-27T01:16:03.106Z,83.95
2019-06-27T01:17:03.040Z,82.89
2019-06-27T01:18:24.015Z,82.98
2019-06-27T01:19:02.998Z,83.75
2019-06-27T01:20:02.990Z,83.85
2019-06-27T01:21:02.945Z,83.08
2019-06-27T01:22:02.901Z,83.56
2019-06-27T01:23:02.875Z,83.08
2019-06-27T01:24:23.841Z,82.98
2019-06-27T01:25:02.823Z,83.04
2019-06-27T01:26:02.788Z,82.94
2019-06-27T01:27:02.762Z,82.94
2019-06-27T01:28:02.731Z,82.75
2019-06-27T01:29:02.708Z,82.65
2019-06-27T01:30:23.671Z,83.14
2019-06-27T01:31:02.655Z,83.04
2019-06-27T01:32:02.628Z,82.46
2019-06-27T01:33:02.592Z,83.14
2019-06-27T01:34:02.554Z,82.60
2019-06-27T01:35:04.389Z,82.17
2019-06-27T01:36:23.497Z,82.75
2019-06-27T01:37:02.507Z,82.17
2019-06-27T01:38:02.453Z,82.65
2019-06-27T01:39:02.423Z,82.65
2019-06-27T01:40:02.421Z,82.27
2019-06-27T01:41:02.382Z,82.65
2019-06-27T01:42:23.349Z,82.37
2019-06-27T01:43:02.313Z,83.04
2019-06-27T01:44:02.289Z,82.65
2019-06-27T01:45:02.249Z,82.56
2019-06-27T01:46:02.234Z,82.85
2019-06-27T01:47:02.214Z,83.14
2019-06-27T01:48:23.167Z,82.75
2019-06-27T01:49:02.149Z,82.56
2019-06-27T01:50:02.122Z,82.27
2019-06-27T01:51:02.101Z,82.65
2019-06-27T01:52:02.060Z,82.56
2019-06-27T01:53:02.037Z,82.46
2019-06-27T01:54:23.027Z,82.56
2019-06-27T01:55:01.972Z,82.56
2019-06-27T01:56:01.943Z,82.17
2019-06-27T01:57:01.926Z,82.56
2019-06-27T01:58:01.900Z,82.37
2019-06-27T01:59:01.864Z,82.75
2019-06-27T02:00:22.838Z,82.32
2019-06-27T02:01:01.799Z,82.46
2019-06-27T02:02:01.801Z,82.56
2019-06-27T02:03:01.763Z,82.56
2019-06-27T02:04:01.733Z,82.52
2019-06-27T02:05:01.773Z,82.71
2019-06-27T02:06:22.670Z,82.52
2019-06-27T02:07:01.654Z,82.71
2019-06-27T02:08:01.621Z,82.04
2019-06-27T02:09:01.600Z,82.61
2019-06-27T02:10:01.555Z,82.32
2019-06-27T02:11:01.525Z,82.14
2019-06-27T02:12:22.499Z,81.94
2019-06-27T02:13:01.474Z,82.14
2019-06-27T02:14:01.451Z,82.04
2019-06-27T02:15:01.417Z,82.04
2019-06-27T02:16:01.391Z,82.52
2019-06-27T02:17:01.364Z,82.42
2019-06-27T02:18:22.334Z,82.42
2019-06-27T02:19:01.294Z,82.14
2019-06-27T02:20:01.279Z,82.32
2019-06-27T02:21:01.248Z,81.94
2019-06-27T02:22:01.229Z,82.42
2019-06-27T02:23:01.191Z,82.32
2019-06-27T02:24:22.159Z,82.23
2019-06-27T02:25:01.133Z,82.14
2019-06-27T02:26:01.110Z,82.61
2019-06-27T02:27:01.095Z,82.32
2019-06-27T02:28:04.365Z,82.04
2019-06-27T02:29:01.017Z,82.04
2019-06-27T02:30:21.992Z,82.14
2019-06-27T02:31:00.981Z,82.42
2019-06-27T02:32:00.931Z,82.32
2019-06-27T02:33:00.902Z,82.23
2019-06-27T02:34:06.103Z,82.14
2019-06-27T02:35:00.869Z,82.42
2019-06-27T02:36:21.806Z,82.19
2019-06-27T02:37:00.792Z,82.09
2019-06-27T02:38:00.773Z,82.32
2019-06-27T02:39:00.742Z,81.90
2019-06-27T02:40:00.711Z,82.29
2019-06-27T02:41:00.671Z,82.23
2019-06-27T02:42:21.670Z,82.04
2019-06-27T02:43:00.617Z,82.29
2019-06-27T02:44:00.597Z,82.09
2019-06-27T02:45:00.580Z,82.32
2019-06-27T02:46:00.536Z,81.84
2019-06-27T02:47:00.509Z,82.23
2019-06-27T02:48:21.473Z,82.23
2019-06-27T02:49:00.455Z,81.99
2019-06-27T02:50:00.417Z,82.29
2019-06-27T02:51:00.403Z,82.29
2019-06-27T02:52:00.364Z,82.38
2019-06-27T02:53:00.342Z,82.19
2019-06-27T02:54:21.317Z,81.81
2019-06-27T02:55:00.282Z,82.29
2019-06-27T02:56:00.263Z,82.38
2019-06-27T02:57:00.228Z,82.19
2019-06-27T02:58:00.191Z,82.38
2019-06-27T02:59:00.162Z,82.29
2019-06-27T03:00:21.143Z,82.09
2019-06-27T03:01:00.113Z,82.48
2019-06-27T03:02:00.086Z,81.81
2019-06-27T03:03:00.071Z,82.57
2019-06-27T03:04:00.054Z,82.48
2019-06-27T03:04:59.993Z,82.57
2019-06-27T03:06:20.967Z,82.09
2019-06-27T03:06:59.947Z,82.29
2019-06-27T03:07:59.922Z,82.38
2019-06-27T03:08:59.884Z,81.61
2019-06-27T03:09:59.855Z,82.38
2019-06-27T03:10:59.844Z,82.29
2019-06-27T03:12:20.801Z,82.19
2019-06-27T03:12:59.774Z,81.48
2019-06-27T03:13:59.739Z,81.48
2019-06-27T03:14:59.717Z,81.48
2019-06-27T03:15:59.683Z,81.86
2019-06-27T03:16:59.655Z,81.57
2019-06-27T03:18:20.624Z,81.57
2019-06-27T03:18:59.615Z,81.67
2019-06-27T03:19:59.573Z,81.67
2019-06-27T03:20:59.544Z,81.09
2019-06-27T03:21:59.529Z,81.48
2019-06-27T03:22:59.482Z,81.48
2019-06-27T03:24:20.461Z,80.99
2019-06-27T03:24:59.427Z,81.48
2019-06-27T03:25:59.398Z,80.96
2019-06-27T03:26:59.369Z,80.96
2019-06-27T03:27:59.365Z,80.96
2019-06-27T03:28:59.314Z,80.57
2019-06-27T03:30:20.319Z,81.05
2019-06-27T03:30:59.267Z,81.15
2019-06-27T03:31:59.234Z,80.86
2019-06-27T03:32:59.209Z,81.24
2019-06-27T03:33:59.168Z,81.15
2019-06-27T03:34:59.146Z,81.15
2019-06-27T03:36:20.109Z,80.96
2019-06-27T03:36:59.083Z,81.15
2019-06-27T03:37:59.069Z,80.47
2019-06-27T03:38:59.024Z,80.47
2019-06-27T03:39:59.023Z,80.66
2019-06-27T03:40:58.970Z,80.76
2019-06-27T03:42:19.960Z,80.96
2019-06-27T03:42:58.911Z,80.80
2019-06-27T03:43:58.886Z,80.38
2019-06-27T03:44:58.864Z,80.86
2019-06-27T03:45:58.818Z,80.19
2019-06-27T03:46:58.797Z,80.57
2019-06-27T03:48:19.759Z,80.28
2019-06-27T03:48:58.743Z,80.28
2019-06-27T03:49:58.707Z,80.47
2019-06-27T03:50:58.671Z,80.86
2019-06-27T03:51:58.646Z,80.57
2019-06-27T03:52:58.610Z,80.19
2019-06-27T03:54:19.591Z,80.19
2019-06-27T03:54:58.564Z,80.28
2019-06-27T03:55:58.527Z,80.57
2019-06-27T03:56:58.499Z,80.19
2019-06-27T03:57:58.475Z,80.19
2019-06-27T03:59:11.523Z,80.09
2019-06-27T04:00:19.425Z,80.43
2019-06-27T04:00:58.392Z,80.38
2019-06-27T04:01:58.352Z,80.05
2019-06-27T04:02:58.335Z,80.15
2019-06-27T04:03:58.318Z,80.24
2019-06-27T04:04:58.276Z,80.38
2019-06-27T04:06:19.241Z,79.86
2019-06-27T04:06:58.222Z,80.05
2019-06-27T04:07:58.170Z,79.86
2019-06-27T04:08:58.161Z,80.24
2019-06-27T04:09:58.130Z,79.96
2019-06-27T04:10:58.101Z,79.96
2019-06-27T04:12:19.070Z,79.96
2019-06-27T04:12:58.036Z,79.76
2019-06-27T04:13:58.004Z,80.05
2019-06-27T04:14:57.981Z,79.67
2019-06-27T04:15:57.958Z,80.24
2019-06-27T04:16:57.930Z,79.86
2019-06-27T04:18:18.907Z,79.57
2019-06-27T04:18:57.861Z,79.76
2019-06-27T04:19:57.828Z,79.76
2019-06-27T04:20:57.813Z,79.76
2019-06-27T04:21:57.778Z,79.57
2019-06-27T04:22:57.753Z,79.57
2019-06-27T04:24:18.716Z,79.24
2019-06-27T04:24:57.682Z,79.63
2019-06-27T04:25:57.658Z,79.44
2019-06-27T04:26:57.629Z,79.63
2019-06-27T04:28:00.075Z,79.76
2019-06-27T04:28:57.574Z,79.14
2019-06-27T04:30:18.542Z,78.86
2019-06-27T04:30:57.511Z,78.86
2019-06-27T04:31:57.487Z,79.05
2019-06-27T04:32:57.455Z,79.05
2019-06-27T04:33:57.427Z,78.99
2019-06-27T04:34:57.395Z,79.09
2019-06-27T04:36:18.378Z,78.90
2019-06-27T04:36:57.339Z,79.09
2019-06-27T04:37:57.312Z,79.67
2019-06-27T04:38:57.272Z,78.99
2019-06-27T04:39:57.251Z,79.38
2019-06-27T04:40:57.213Z,79.38
2019-06-27T04:42:18.184Z,79.28
2019-06-27T04:42:57.162Z,79.34
2019-06-27T04:43:57.147Z,79.38
2019-06-27T04:44:57.098Z,78.86
2019-06-27T04:45:57.079Z,78.86
2019-06-27T04:46:57.052Z,78.86
2019-06-27T04:48:18.005Z,79.09
2019-06-27T04:48:56.989Z,79.05
2019-06-27T04:49:56.950Z,78.86
2019-06-27T04:50:56.955Z,79.09
2019-06-27T04:51:56.883Z,79.19
2019-06-27T04:52:56.862Z,78.90
2019-06-27T04:54:17.845Z,79.19
2019-06-27T04:54:56.810Z,79.38
2019-06-27T04:55:56.780Z,79.09
2019-06-27T04:56:56.756Z,79.28
2019-06-27T04:57:56.742Z,79.47
2019-06-27T04:58:56.715Z,79.09
2019-06-27T05:00:17.666Z,79.28
2019-06-27T05:00:56.624Z,79.09
2019-06-27T05:01:56.606Z,79.24
2019-06-27T05:02:56.592Z,78.80
2019-06-27T05:03:56.544Z,79.28
2019-06-27T05:04:56.515Z,79.19
2019-06-27T05:06:17.485Z,79.19
2019-06-27T05:06:56.466Z,78.99
2019-06-27T05:07:56.425Z,79.47
2019-06-27T05:08:56.389Z,79.38
2019-06-27T05:09:56.369Z,79.38
2019-06-27T05:10:56.348Z,79.38
2019-06-27T05:12:17.326Z,79.09
2019-06-27T05:12:56.280Z,78.90
2019-06-27T05:13:56.268Z,79.19
2019-06-27T05:14:56.211Z,78.80
2019-06-27T05:15:56.195Z,79.28
2019-06-27T05:16:56.167Z,78.90
2019-06-27T05:18:17.139Z,79.19
2019-06-27T05:18:56.103Z,78.99
2019-06-27T05:19:56.097Z,79.19
2019-06-27T05:20:56.059Z,79.28
2019-06-27T05:21:56.010Z,79.28
2019-06-27T05:22:55.982Z,79.28
2019-06-27T05:24:16.983Z,79.19
2019-06-27T05:24:55.927Z,79.13
2019-06-27T05:25:55.896Z,79.32
2019-06-27T05:26:55.869Z,79.09
2019-06-27T05:27:55.869Z,78.90
2019-06-27T05:28:55.823Z,78.84
2019-06-27T05:30:16.777Z,79.22
2019-06-27T05:30:55.833Z,79.03
2019-06-27T05:31:55.730Z,79.03
2019-06-27T05:32:55.693Z,79.28
2019-06-27T05:33:55.667Z,78.90
2019-06-27T05:34:55.627Z,79.19
2019-06-27T05:36:16.610Z,78.99
2019-06-27T05:36:55.610Z,79.38
2019-06-27T05:37:55.556Z,79.38
2019-06-27T05:38:55.540Z,79.19
2019-06-27T05:39:55.508Z,79.38
2019-06-27T05:40:55.463Z,79.19
2019-06-27T05:42:16.430Z,79.03
2019-06-27T05:42:55.393Z,78.84
2019-06-27T05:43:55.379Z,79.19
2019-06-27T05:44:55.341Z,79.38
2019-06-27T05:45:55.343Z,78.70
2019-06-27T05:46:55.276Z,79.19
2019-06-27T05:48:16.241Z,79.22
2019-06-27T05:48:55.231Z,79.13
2019-06-27T05:49:55.196Z,78.84
2019-06-27T05:50:55.162Z,79.42
2019-06-27T05:51:55.127Z,79.13
2019-06-27T05:52:55.109Z,79.38
2019-06-27T05:54:16.078Z,78.99
2019-06-27T05:54:55.051Z,79.28
2019-06-27T05:55:55.018Z,79.38
2019-06-27T05:56:54.986Z,79.38
2019-06-27T05:57:54.958Z,79.19
2019-06-27T05:58:54.926Z,78.99
2019-06-27T06:00:27.356Z,79.19
2019-06-27T06:00:54.876Z,78.90
2019-06-27T06:01:54.859Z,79.19
2019-06-27T06:02:54.819Z,78.99
2019-06-27T06:03:54.786Z,79.99
2019-06-27T06:04:54.766Z,79.19
2019-06-27T06:06:15.733Z,79.03
2019-06-27T06:06:54.698Z,79.90
2019-06-27T06:07:54.668Z,79.13
2019-06-27T06:08:54.648Z,79.90
2019-06-27T06:09:54.626Z,79.13
2019-06-27T06:10:54.602Z,79.71
2019-06-27T06:12:15.558Z,79.42
2019-06-27T06:12:54.523Z,79.32
2019-06-27T06:13:54.496Z,79.32
2019-06-27T06:14:54.458Z,79.22
2019-06-27T06:15:54.437Z,79.13
2019-06-27T06:16:54.414Z,79.22
2019-06-27T06:18:15.404Z,79.80
2019-06-27T06:18:54.349Z,79.03
2019-06-27T06:19:54.320Z,79.80
2019-06-27T06:20:54.296Z,79.22
2019-06-27T06:21:54.286Z,79.80
2019-06-27T06:22:54.233Z,79.32
2019-06-27T06:24:15.219Z,79.03
2019-06-27T06:24:54.167Z,79.94
2019-06-27T06:25:54.149Z,79.32
2019-06-27T06:26:54.134Z,79.94
2019-06-27T06:27:54.094Z,79.65
2019-06-27T06:28:54.068Z,79.17
2019-06-27T06:30:15.034Z,79.55
2019-06-27T06:30:54.015Z,79.27
2019-06-27T06:31:54.005Z,79.07
2019-06-27T06:32:53.939Z,79.27
2019-06-27T06:33:54.020Z,79.17
2019-06-27T06:34:53.894Z,79.27
2019-06-27T06:36:14.863Z,80.04
2019-06-27T06:36:53.844Z,79.07
2019-06-27T06:37:53.800Z,79.07
2019-06-27T06:38:53.780Z,79.75
2019-06-27T06:39:53.748Z,79.75
2019-06-27T06:40:53.729Z,79.75
2019-06-27T06:42:14.684Z,79.46
2019-06-27T06:42:56.967Z,79.13
2019-06-27T06:43:53.643Z,79.55
2019-06-27T06:44:53.598Z,79.27
2019-06-27T06:45:53.574Z,80.04
2019-06-27T06:46:53.540Z,79.65
2019-06-27T06:48:14.510Z,79.75
2019-06-27T06:48:53.484Z,79.75
2019-06-27T06:49:53.465Z,79.75
2019-06-27T06:50:53.429Z,79.27
2019-06-27T06:51:53.411Z,79.94
2019-06-27T06:52:53.362Z,79.27
2019-06-27T06:54:14.340Z,78.88
2019-06-27T06:54:53.310Z,79.17
2019-06-27T06:55:53.281Z,79.07
2019-06-27T06:56:53.255Z,79.36
2019-06-27T06:57:53.220Z,79.17
2019-06-27T06:58:53.217Z,79.27
2019-06-27T07:00:14.173Z,79.55
2019-06-27T07:01:01.713Z,79.84
2019-06-27T07:01:53.117Z,79.55
2019-06-27T07:02:53.122Z,79.36
2019-06-27T07:03:53.055Z,80.04
2019-06-27T07:04:53.025Z,79.46
2019-06-27T07:06:14.001Z,79.84
2019-06-27T07:06:52.968Z,79.36
2019-06-27T07:07:52.931Z,79.27
2019-06-27T07:08:52.917Z,79.27
2019-06-27T07:09:52.886Z,79.07
2019-06-27T07:10:52.852Z,79.07
2019-06-27T07:12:13.833Z,79.27
2019-06-27T07:12:52.814Z,79.30
2019-06-27T07:13:52.821Z,79.30
2019-06-27T07:14:52.753Z,79.50
2019-06-27T07:15:52.718Z,79.69
2019-06-27T07:16:52.672Z,79.11
2019-06-27T07:18:13.656Z,78.92
2019-06-27T07:18:52.618Z,79.11
2019-06-27T07:19:52.583Z,78.63
2019-06-27T07:20:52.566Z,78.83
2019-06-27T07:21:52.535Z,78.92
2019-06-27T07:22:52.502Z,78.83
2019-06-27T07:24:13.468Z,78.92
2019-06-27T07:24:52.553Z,79.11
2019-06-27T07:25:52.409Z,79.63
2019-06-27T07:26:52.398Z,78.63
2019-06-27T07:27:52.367Z,79.21
2019-06-27T07:28:52.328Z,78.44
2019-06-27T07:30:13.322Z,78.40
2019-06-27T07:30:52.281Z,78.40
2019-06-27T07:31:52.244Z,78.88
2019-06-27T07:32:52.219Z,78.44
2019-06-27T07:33:52.196Z,78.73
2019-06-27T07:34:52.182Z,78.88
2019-06-27T07:36:13.131Z,78.53
2019-06-27T07:36:52.104Z,78.63
2019-06-27T07:37:52.063Z,78.53
2019-06-27T07:38:52.048Z,79.63
2019-06-27T07:39:52.085Z,78.96
2019-06-27T07:40:51.993Z,78.67
2019-06-27T07:42:12.958Z,78.48
2019-06-27T07:42:51.934Z,78.63
2019-06-27T07:43:51.913Z,79.35
2019-06-27T07:44:51.889Z,78.67
2019-06-27T07:45:51.859Z,79.11
2019-06-27T07:46:51.817Z,79.15
2019-06-27T07:48:12.793Z,78.92
2019-06-27T07:48:51.760Z,79.53
2019-06-27T07:49:51.733Z,79.53
2019-06-27T07:50:51.736Z,79.05
2019-06-27T07:51:51.674Z,78.86
2019-06-27T07:52:51.656Z,80.02
2019-06-27T07:54:12.644Z,79.58
2019-06-27T07:54:51.585Z,79.25
2019-06-27T07:55:51.560Z,79.63
2019-06-27T07:56:51.554Z,79.05
2019-06-27T07:57:51.509Z,79.35
2019-06-27T07:58:51.475Z,79.35
2019-06-27T08:00:12.457Z,79.53
2019-06-27T08:00:51.429Z,79.44
2019-06-27T08:01:51.401Z,79.05
2019-06-27T08:02:51.380Z,79.73
2019-06-27T08:03:51.340Z,79.63
2019-06-27T08:04:51.319Z,79.48
2019-06-27T08:06:12.287Z,79.44
2019-06-27T08:06:51.263Z,79.19
2019-06-27T08:07:51.252Z,79.58
2019-06-27T08:08:51.205Z,79.38
2019-06-27T08:09:51.170Z,79.10
2019-06-27T08:10:51.140Z,79.38
2019-06-27T08:12:12.124Z,79.10
2019-06-27T08:12:51.086Z,79.00
2019-06-27T08:13:51.065Z,79.10
2019-06-27T08:14:51.034Z,78.90
2019-06-27T08:15:50.997Z,78.81
2019-06-27T08:16:50.994Z,79.38
2019-06-27T08:18:11.974Z,79.38
2019-06-27T08:18:50.935Z,79.38
2019-06-27T08:19:50.899Z,79.58
2019-06-27T08:20:50.859Z,80.10
2019-06-27T08:21:50.833Z,78.94
2019-06-27T08:22:50.801Z,79.23
2019-06-27T08:24:11.769Z,79.33
2019-06-27T08:24:50.755Z,79.38
2019-06-27T08:25:50.719Z,79.90
2019-06-27T08:26:50.708Z,79.43
2019-06-27T08:27:50.667Z,79.81
2019-06-27T08:28:50.823Z,79.33
2019-06-27T08:30:11.606Z,79.61
2019-06-27T08:30:50.608Z,79.36
2019-06-27T08:31:52.125Z,79.46
2019-06-27T08:32:50.523Z,78.69
2019-06-27T08:33:50.519Z,78.31
2019-06-27T08:34:50.510Z,79.08
2019-06-27T08:36:11.434Z,78.69
2019-06-27T08:36:50.414Z,79.17
2019-06-27T08:37:50.392Z,78.88
2019-06-27T08:38:50.361Z,79.08
2019-06-27T08:39:50.328Z,79.11
2019-06-27T08:40:50.317Z,78.83
2019-06-27T08:42:11.269Z,78.44
2019-06-27T08:42:50.252Z,77.92
2019-06-27T08:43:50.217Z,77.67
2019-06-27T08:44:50.187Z,76.13
2019-06-27T08:45:50.176Z,75.45
2019-06-27T08:46:50.141Z,75.84
2019-06-27T08:48:11.123Z,75.45
2019-06-27T08:48:50.102Z,73.24
2019-06-27T08:49:50.062Z,73.43
2019-06-27T08:50:50.022Z,72.75
2019-06-27T08:51:50.007Z,73.62
2019-06-27T08:52:49.992Z,73.72
2019-06-27T08:54:10.969Z,74.58
2019-06-27T08:54:49.917Z,75.36
2019-06-27T08:55:49.894Z,75.45
2019-06-27T08:56:49.859Z,74.40
2019-06-27T08:57:49.841Z,73.33
2019-06-27T08:58:49.809Z,73.43
2019-06-27T09:00:10.775Z,72.69
2019-06-27T09:00:49.758Z,72.37
2019-06-27T09:01:49.724Z,71.12
2019-06-27T09:02:49.708Z,71.34
2019-06-27T09:03:49.677Z,71.60
2019-06-27T09:04:49.656Z,71.12
2019-06-27T09:06:10.614Z,72.89
2019-06-27T09:06:49.591Z,71.92
2019-06-27T09:07:49.580Z,72.02
2019-06-27T09:08:49.537Z,71.64
2019-06-27T09:09:49.508Z,70.61
2019-06-27T09:10:49.488Z,69.13
2019-06-27T09:12:10.481Z,67.68
2019-06-27T09:12:49.441Z,67.49
2019-06-27T09:13:49.393Z,65.85
2019-06-27T09:14:49.382Z,66.66
2019-06-27T09:15:49.343Z,66.94
2019-06-27T09:16:49.326Z,67.52
2019-06-27T09:18:10.283Z,67.97
2019-06-27T09:18:49.261Z,67.23
2019-06-27T09:19:49.243Z,66.85
2019-06-27T09:20:49.211Z,66.46
2019-06-27T09:21:49.180Z,66.66
2019-06-27T09:22:49.156Z,67.23
2019-06-27T09:24:10.129Z,67.04
2019-06-27T09:24:49.100Z,66.75
2019-06-27T09:25:49.074Z,66.27
2019-06-27T09:26:49.044Z,67.33
2019-06-27T09:27:49.019Z,66.85
2019-06-27T09:28:49.005Z,66.27
2019-06-27T09:30:09.968Z,66.20
2019-06-27T09:30:48.949Z,65.30
2019-06-27T09:31:48.915Z,65.82
2019-06-27T09:32:48.889Z,65.24
2019-06-27T09:33:48.860Z,66.01
2019-06-27T09:34:48.842Z,66.88
2019-06-27T09:36:09.804Z,67.36
2019-06-27T09:36:48.781Z,66.30
2019-06-27T09:37:48.746Z,65.91
2019-06-27T09:38:48.721Z,64.66
2019-06-27T09:39:48.705Z,64.18
2019-06-27T09:40:48.661Z,64.66
2019-06-27T09:42:09.637Z,65.37
2019-06-27T09:42:48.621Z,63.43
2019-06-27T09:43:48.585Z,63.34
2019-06-27T09:44:48.560Z,60.06
2019-06-27T09:45:48.538Z,60.06
2019-06-27T09:46:48.528Z,59.77
2019-06-27T09:48:09.482Z,60.09
2019-06-27T09:48:48.466Z,59.41
2019-06-27T09:49:48.437Z,58.45
2019-06-27T09:50:48.407Z,59.89
2019-06-27T09:51:48.378Z,59.70
2019-06-27T09:52:48.354Z,58.35
2019-06-27T09:54:09.320Z,57.48
2019-06-27T09:54:48.366Z,56.61
2019-06-27T09:55:48.282Z,57.09
2019-06-27T09:56:48.247Z,56.61
2019-06-27T09:57:48.213Z,58.06
2019-06-27T09:58:48.203Z,58.93
2019-06-27T10:00:09.187Z,58.15
2019-06-27T10:00:48.157Z,57.77
2019-06-27T10:01:48.111Z,58.15
2019-06-27T10:02:48.117Z,58.35
2019-06-27T10:03:48.067Z,59.12
2019-06-27T10:04:48.101Z,59.53
2019-06-27T10:06:09.016Z,59.73
2019-06-27T10:06:47.981Z,56.86
2019-06-27T10:07:47.962Z,55.41
2019-06-27T10:08:47.951Z,54.27
2019-06-27T10:09:47.914Z,54.75
2019-06-27T10:10:47.891Z,53.99
2019-06-27T10:12:08.851Z,53.21
2019-06-27T10:12:47.823Z,52.82
2019-06-27T10:13:47.807Z,54.11
2019-06-27T10:14:47.789Z,53.33
2019-06-27T10:15:47.763Z,52.97
2019-06-27T10:16:47.742Z,49.87
2019-06-27T10:18:08.713Z,48.44
2019-06-27T10:18:47.694Z,49.82
2019-06-27T10:19:47.666Z,51.57
2019-06-27T10:20:47.642Z,50.70
2019-06-27T10:21:47.618Z,49.92
2019-06-27T10:22:47.585Z,49.54
2019-06-27T10:24:08.562Z,49.05
2019-06-27T10:24:47.549Z,49.27
2019-06-27T10:25:47.510Z,47.62
2019-06-27T10:26:47.493Z,47.89
2019-06-27T10:27:47.507Z,48.37
2019-06-27T10:28:47.443Z,47.79
2019-06-27T10:30:08.432Z,47.91
2019-06-27T10:30:49.268Z,47.81
2019-06-27T10:31:47.368Z,49.77
2019-06-27T10:32:58.222Z,50.72
2019-06-27T10:33:47.335Z,50.34
2019-06-27T10:34:47.315Z,50.43
2019-06-27T10:36:08.284Z,50.84
2019-06-27T10:36:47.256Z,49.58
2019-06-27T10:37:47.234Z,47.74
2019-06-27T10:38:47.223Z,47.55
2019-06-27T10:39:47.210Z,46.86
2019-06-27T10:40:47.169Z,45.70
2019-06-27T10:42:08.149Z,46.38
2019-06-27T10:42:47.108Z,47.40
2019-06-27T10:43:47.111Z,48.54
2019-06-27T10:44:47.130Z,46.80
2019-06-27T10:45:47.053Z,46.00
2019-06-27T10:46:47.014Z,44.96
2019-06-27T10:48:08.080Z,43.50
2019-06-27T10:48:46.973Z,43.52
2019-06-27T10:49:46.956Z,44.30
2019-06-27T10:50:46.933Z,46.41
2019-06-27T10:51:46.916Z,47.11
2019-06-27T10:52:46.898Z,46.36
2019-06-27T10:54:07.871Z,45.89
2019-06-27T10:54:46.851Z,45.39
2019-06-27T10:55:46.829Z,44.49
2019-06-27T10:56:46.797Z,44.49
2019-06-27T10:57:46.775Z,44.09
2019-06-27T10:58:46.740Z,44.37
2019-06-27T11:00:07.734Z,42.72
2019-06-27T11:00:46.697Z,43.38
2019-06-27T11:01:46.671Z,43.89
2019-06-27T11:02:46.684Z,45.03
2019-06-27T11:03:46.631Z,45.83
2019-06-27T11:04:46.655Z,46.77
2019-06-27T11:06:07.606Z,48.37
2019-06-27T11:06:46.567Z,48.59
2019-06-27T11:07:46.545Z,48.32
2019-06-27T11:08:46.516Z,46.89
2019-06-27T11:09:49.996Z,46.33
2019-06-27T11:10:46.481Z,46.42
2019-06-27T11:12:07.447Z,46.62
2019-06-27T11:12:46.424Z,45.97
2019-06-27T11:13:58.199Z,45.28
2019-06-27T11:14:58.644Z,45.57
2019-06-27T11:15:49.241Z,44.70
2019-06-27T11:16:46.335Z,45.21
2019-06-27T11:18:07.323Z,44.43
2019-06-27T11:18:46.292Z,44.43
2019-06-27T11:19:52.427Z,43.85
2019-06-27T11:20:46.254Z,43.65
2019-06-27T11:21:46.238Z,44.14
2019-06-27T11:22:46.235Z,44.53
2019-06-27T11:24:07.187Z,44.65
2019-06-27T11:24:46.171Z,45.14
2019-06-27T11:25:46.156Z,44.76
2019-06-27T11:26:46.116Z,43.81
2019-06-27T11:27:46.111Z,43.89
2019-06-27T11:28:46.066Z,43.79
2019-06-27T11:30:07.092Z,43.40
2019-06-27T11:30:46.032Z,43.50
2019-06-27T11:31:46.027Z,43.13
2019-06-27T11:32:45.992Z,43.33
2019-06-27T11:33:45.972Z,42.55
2019-06-27T11:34:45.947Z,43.01
2019-06-27T11:36:06.921Z,43.60
2019-06-27T11:36:46.740Z,43.52
2019-06-27T11:37:45.882Z,43.62
2019-06-27T11:38:45.852Z,43.33
2019-06-27T11:39:45.840Z,43.13
2019-06-27T11:40:45.810Z,43.01
2019-06-27T11:42:06.795Z,43.13
2019-06-27T11:42:45.766Z,43.13
2019-06-27T11:43:45.755Z,42.25
2019-06-27T11:44:45.732Z,43.11
2019-06-27T11:45:45.722Z,42.43
2019-06-27T11:46:45.679Z,42.91
2019-06-27T11:48:06.653Z,43.01
2019-06-27T11:48:45.635Z,43.21
2019-06-27T11:49:45.622Z,43.13
2019-06-27T11:50:45.594Z,42.55
2019-06-27T11:51:45.579Z,42.38
2019-06-27T11:52:47.274Z,42.28
2019-06-27T11:54:06.540Z,42.16
2019-06-27T11:54:45.518Z,42.24
2019-06-27T11:55:45.497Z,42.25
2019-06-27T11:56:45.463Z,41.77
2019-06-27T11:57:45.458Z,41.77
2019-06-27T11:58:45.443Z,42.25
2019-06-27T12:00:06.394Z,41.09
2019-06-27T12:00:45.385Z,41.30
2019-06-27T12:01:45.364Z,41.03
2019-06-27T12:02:45.335Z,40.06
2019-06-27T12:03:49.745Z,38.81
2019-06-27T12:04:45.299Z,39.98
2019-06-27T12:06:06.279Z,38.89
2019-06-27T12:06:45.254Z,39.49
2019-06-27T12:07:45.245Z,39.96
2019-06-27T12:08:45.292Z,39.94
2019-06-27T12:09:45.196Z,40.91
2019-06-27T12:10:45.174Z,41.11
2019-06-27T12:12:06.155Z,41.52
2019-06-27T12:12:45.145Z,40.16
2019-06-27T12:13:45.123Z,39.69
2019-06-27T12:14:45.085Z,40.37
2019-06-27T12:15:45.070Z,40.27
2019-06-27T12:16:45.053Z,39.98
2019-06-27T12:18:06.039Z,39.28
2019-06-27T12:18:44.996Z,39.76
2019-06-27T12:19:44.979Z,39.57
2019-06-27T12:20:44.959Z,39.37
2019-06-27T12:21:44.940Z,39.29
2019-06-27T12:22:44.916Z,39.29
2019-06-27T12:24:05.897Z,39.10
2019-06-27T12:24:44.879Z,39.39
2019-06-27T12:25:44.860Z,38.61
2019-06-27T12:26:44.843Z,38.71
2019-06-27T12:27:44.841Z,38.02
2019-06-27T12:28:44.787Z,38.22
2019-06-27T12:30:05.833Z,37.54
2019-06-27T12:30:44.735Z,37.15
2019-06-27T12:31:44.744Z,36.84
2019-06-27T12:32:51.710Z,36.74
2019-06-27T12:33:44.692Z,36.37
2019-06-27T12:34:44.662Z,35.98
2019-06-27T12:36:05.634Z,36.39
2019-06-27T12:36:44.616Z,35.51
2019-06-27T12:37:44.595Z,34.92
2019-06-27T12:38:44.571Z,35.39
2019-06-27T12:39:44.547Z,35.10
2019-06-27T12:40:44.543Z,34.71
2019-06-27T12:42:05.524Z,34.21
2019-06-27T12:42:44.494Z,33.73
2019-06-27T12:43:44.480Z,34.78
2019-06-27T12:44:44.446Z,36.24
2019-06-27T12:45:44.421Z,36.33
2019-06-27T12:46:44.405Z,36.33
2019-06-27T12:48:07.593Z,36.06
2019-06-27T12:48:44.362Z,36.18
2019-06-27T12:50:00.653Z,35.10
2019-06-27T12:50:44.327Z,34.71
2019-06-27T12:51:44.298Z,34.91